sensor_id;sensor_type;location;lat;lon;timestamp;P1;durP1;ratioP1;P2;durP2;ratioP2
45988;SDS011;31718;50.762;12.764;2022-07-23T00:00:09;6.47;;;4.32;;
45988;SDS011;31718;50.762;12.764;2022-07-23T00:02:35;7.25;;;4.30;;
45988;SDS011;31718;50.762;12.764;2022-07-23T00:05:01;7.03;;;4.43;;
45988;SDS011;31718;50.762;12.764;2022-07-23T00:07:28;8.13;;;4.55;;
45988;SDS011;31718;50.762;12.764;2022-07-23T00:09:53;8.10;;;5.00;;
45988;SDS011;31718;50.762;12.764;2022-07-23T00:12:20;7.18;;;4.60;;
45988;SDS011;31718;50.762;12.764;2022-07-23T00:14:46;7.68;;;4.30;;
45988;SDS011;31718;50.762;12.764;2022-07-23T00:17:11;6.35;;;4.47;;
45988;SDS011;31718;50.762;12.764;2022-07-23T00:19:37;9.23;;;4.97;;
45988;SDS011;31718;50.762;12.764;2022-07-23T00:22:02;7.50;;;5.20;;
45988;SDS011;31718;50.762;12.764;2022-07-23T00:24:28;9.27;;;4.93;;
45988;SDS011;31718;50.762;12.764;2022-07-23T00:26:54;7.03;;;4.80;;
45988;SDS011;31718;50.762;12.764;2022-07-23T00:29:19;9.02;;;5.15;;
45988;SDS011;31718;50.762;12.764;2022-07-23T00:31:45;7.82;;;5.05;;
45988;SDS011;31718;50.762;12.764;2022-07-23T00:34:11;7.97;;;4.88;;
45988;SDS011;31718;50.762;12.764;2022-07-23T00:36:36;7.57;;;4.78;;
45988;SDS011;31718;50.762;12.764;2022-07-23T00:39:02;7.95;;;4.60;;
45988;SDS011;31718;50.762;12.764;2022-07-23T00:41:27;10.13;;;4.80;;
45988;SDS011;31718;50.762;12.764;2022-07-23T00:43:53;8.20;;;4.80;;
45988;SDS011;31718;50.762;12.764;2022-07-23T00:46:20;7.47;;;4.80;;
45988;SDS011;31718;50.762;12.764;2022-07-23T00:48:46;9.48;;;5.10;;
45988;SDS011;31718;50.762;12.764;2022-07-23T00:51:11;9.98;;;4.90;;
45988;SDS011;31718;50.762;12.764;2022-07-23T00:53:37;9.48;;;5.20;;
45988;SDS011;31718;50.762;12.764;2022-07-23T00:56:03;9.38;;;4.95;;
45988;SDS011;31718;50.762;12.764;2022-07-23T00:58:29;9.07;;;5.10;;
45988;SDS011;31718;50.762;12.764;2022-07-23T01:00:55;8.05;;;4.80;;
45988;SDS011;31718;50.762;12.764;2022-07-23T01:03:21;7.50;;;4.85;;
45988;SDS011;31718;50.762;12.764;2022-07-23T01:05:47;7.95;;;5.10;;
45988;SDS011;31718;50.762;12.764;2022-07-23T01:08:13;9.02;;;5.03;;
45988;SDS011;31718;50.762;12.764;2022-07-23T01:10:38;11.70;;;5.22;;
45988;SDS011;31718;50.762;12.764;2022-07-23T01:13:06;8.63;;;4.57;;
45988;SDS011;31718;50.762;12.764;2022-07-23T01:15:34;9.00;;;4.90;;
45988;SDS011;31718;50.762;12.764;2022-07-23T01:18:01;8.10;;;4.82;;
45988;SDS011;31718;50.762;12.764;2022-07-23T01:20:28;7.60;;;4.72;;
45988;SDS011;31718;50.762;12.764;2022-07-23T01:22:54;7.05;;;4.60;;
45988;SDS011;31718;50.762;12.764;2022-07-23T01:25:20;8.32;;;4.93;;
45988;SDS011;31718;50.762;12.764;2022-07-23T01:27:47;6.90;;;4.55;;
45988;SDS011;31718;50.762;12.764;2022-07-23T01:30:13;8.73;;;5.13;;
45988;SDS011;31718;50.762;12.764;2022-07-23T01:32:39;8.55;;;5.00;;
45988;SDS011;31718;50.762;12.764;2022-07-23T01:35:05;8.43;;;5.68;;
45988;SDS011;31718;50.762;12.764;2022-07-23T01:37:32;7.68;;;5.20;;
45988;SDS011;31718;50.762;12.764;2022-07-23T01:39:57;7.97;;;5.45;;
45988;SDS011;31718;50.762;12.764;2022-07-23T01:42:24;8.77;;;5.20;;
45988;SDS011;31718;50.762;12.764;2022-07-23T01:44:49;8.52;;;5.28;;
45988;SDS011;31718;50.762;12.764;2022-07-23T01:47:15;10.48;;;5.43;;
45988;SDS011;31718;50.762;12.764;2022-07-23T01:49:41;8.15;;;5.07;;
45988;SDS011;31718;50.762;12.764;2022-07-23T01:52:07;8.55;;;5.45;;
45988;SDS011;31718;50.762;12.764;2022-07-23T01:54:36;8.18;;;5.57;;
45988;SDS011;31718;50.762;12.764;2022-07-23T01:57:03;9.73;;;5.28;;
45988;SDS011;31718;50.762;12.764;2022-07-23T01:59:29;9.10;;;5.20;;
45988;SDS011;31718;50.762;12.764;2022-07-23T02:01:55;7.50;;;4.90;;
45988;SDS011;31718;50.762;12.764;2022-07-23T02:04:21;9.50;;;5.18;;
45988;SDS011;31718;50.762;12.764;2022-07-23T02:06:48;7.47;;;4.95;;
45988;SDS011;31718;50.762;12.764;2022-07-23T02:09:14;9.88;;;5.88;;
45988;SDS011;31718;50.762;12.764;2022-07-23T02:11:40;8.43;;;5.50;;
45988;SDS011;31718;50.762;12.764;2022-07-23T02:14:06;10.43;;;5.18;;
45988;SDS011;31718;50.762;12.764;2022-07-23T02:16:31;8.18;;;5.50;;
45988;SDS011;31718;50.762;12.764;2022-07-23T02:18:57;8.52;;;4.50;;
45988;SDS011;31718;50.762;12.764;2022-07-23T02:21:23;7.82;;;4.90;;
45988;SDS011;31718;50.762;12.764;2022-07-23T02:23:48;9.80;;;4.80;;
45988;SDS011;31718;50.762;12.764;2022-07-23T02:26:14;7.05;;;4.90;;
45988;SDS011;31718;50.762;12.764;2022-07-23T02:28:40;7.22;;;4.40;;
45988;SDS011;31718;50.762;12.764;2022-07-23T02:31:05;9.02;;;5.18;;
45988;SDS011;31718;50.762;12.764;2022-07-23T02:33:31;6.63;;;4.00;;
45988;SDS011;31718;50.762;12.764;2022-07-23T02:35:58;8.05;;;4.43;;
45988;SDS011;31718;50.762;12.764;2022-07-23T02:38:23;7.50;;;4.25;;
45988;SDS011;31718;50.762;12.764;2022-07-23T02:40:49;7.75;;;4.35;;
45988;SDS011;31718;50.762;12.764;2022-07-23T02:43:15;7.70;;;4.20;;
45988;SDS011;31718;50.762;12.764;2022-07-23T02:45:40;7.43;;;4.40;;
45988;SDS011;31718;50.762;12.764;2022-07-23T02:48:06;10.00;;;4.63;;
45988;SDS011;31718;50.762;12.764;2022-07-23T02:50:31;7.25;;;4.35;;
45988;SDS011;31718;50.762;12.764;2022-07-23T02:52:57;6.38;;;4.28;;
45988;SDS011;31718;50.762;12.764;2022-07-23T02:55:23;6.45;;;4.18;;
45988;SDS011;31718;50.762;12.764;2022-07-23T02:57:48;6.75;;;4.35;;
45988;SDS011;31718;50.762;12.764;2022-07-23T03:00:14;6.47;;;3.78;;
45988;SDS011;31718;50.762;12.764;2022-07-23T03:02:40;7.13;;;4.40;;
45988;SDS011;31718;50.762;12.764;2022-07-23T03:05:05;7.95;;;4.35;;
45988;SDS011;31718;50.762;12.764;2022-07-23T03:07:31;7.22;;;4.80;;
45988;SDS011;31718;50.762;12.764;2022-07-23T03:09:57;7.38;;;4.75;;
45988;SDS011;31718;50.762;12.764;2022-07-23T03:12:23;8.05;;;5.20;;
45988;SDS011;31718;50.762;12.764;2022-07-23T03:14:48;7.68;;;4.40;;
45988;SDS011;31718;50.762;12.764;2022-07-23T03:17:14;6.75;;;4.57;;
45988;SDS011;31718;50.762;12.764;2022-07-23T03:19:39;6.95;;;4.40;;
45988;SDS011;31718;50.762;12.764;2022-07-23T03:22:05;7.05;;;4.38;;
45988;SDS011;31718;50.762;12.764;2022-07-23T03:24:31;6.68;;;4.32;;
45988;SDS011;31718;50.762;12.764;2022-07-23T03:27:15;8.13;;;5.03;;
45988;SDS011;31718;50.762;12.764;2022-07-23T03:29:41;7.28;;;4.82;;
45988;SDS011;31718;50.762;12.764;2022-07-23T03:32:07;7.93;;;5.28;;
45988;SDS011;31718;50.762;12.764;2022-07-23T03:34:32;7.85;;;4.97;;
45988;SDS011;31718;50.762;12.764;2022-07-23T03:36:58;7.82;;;4.65;;
45988;SDS011;31718;50.762;12.764;2022-07-23T03:39:24;9.55;;;5.57;;
45988;SDS011;31718;50.762;12.764;2022-07-23T03:41:49;8.90;;;5.32;;
45988;SDS011;31718;50.762;12.764;2022-07-23T03:44:15;7.50;;;5.20;;
45988;SDS011;31718;50.762;12.764;2022-07-23T03:46:40;7.95;;;4.93;;
45988;SDS011;31718;50.762;12.764;2022-07-23T03:49:06;10.77;;;5.53;;
45988;SDS011;31718;50.762;12.764;2022-07-23T03:51:32;8.75;;;5.22;;
45988;SDS011;31718;50.762;12.764;2022-07-23T03:53:57;9.80;;;5.60;;
45988;SDS011;31718;50.762;12.764;2022-07-23T03:56:23;7.05;;;4.72;;
45988;SDS011;31718;50.762;12.764;2022-07-23T03:58:49;7.13;;;4.40;;
45988;SDS011;31718;50.762;12.764;2022-07-23T04:01:14;9.13;;;4.72;;
45988;SDS011;31718;50.762;12.764;2022-07-23T04:03:40;7.25;;;5.10;;
45988;SDS011;31718;50.762;12.764;2022-07-23T04:06:06;7.80;;;4.82;;
45988;SDS011;31718;50.762;12.764;2022-07-23T04:08:32;7.60;;;4.90;;
45988;SDS011;31718;50.762;12.764;2022-07-23T04:10:57;9.13;;;5.68;;
45988;SDS011;31718;50.762;12.764;2022-07-23T04:13:23;7.90;;;5.00;;
45988;SDS011;31718;50.762;12.764;2022-07-23T04:15:48;8.82;;;5.20;;
45988;SDS011;31718;50.762;12.764;2022-07-23T04:18:15;8.85;;;4.72;;
45988;SDS011;31718;50.762;12.764;2022-07-23T04:20:42;7.53;;;4.80;;
45988;SDS011;31718;50.762;12.764;2022-07-23T04:23:11;6.85;;;4.50;;
45988;SDS011;31718;50.762;12.764;2022-07-23T04:25:37;8.43;;;5.10;;
45988;SDS011;31718;50.762;12.764;2022-07-23T04:28:03;7.38;;;4.82;;
45988;SDS011;31718;50.762;12.764;2022-07-23T04:30:28;8.25;;;4.85;;
45988;SDS011;31718;50.762;12.764;2022-07-23T04:32:54;7.35;;;4.57;;
45988;SDS011;31718;50.762;12.764;2022-07-23T04:35:20;7.15;;;4.80;;
45988;SDS011;31718;50.762;12.764;2022-07-23T04:37:45;7.20;;;4.57;;
45988;SDS011;31718;50.762;12.764;2022-07-23T04:40:12;7.20;;;4.55;;
45988;SDS011;31718;50.762;12.764;2022-07-23T04:42:38;7.30;;;5.28;;
45988;SDS011;31718;50.762;12.764;2022-07-23T04:45:04;8.02;;;5.60;;
45988;SDS011;31718;50.762;12.764;2022-07-23T04:47:30;10.07;;;6.30;;
45988;SDS011;31718;50.762;12.764;2022-07-23T04:49:56;9.38;;;6.43;;
45988;SDS011;31718;50.762;12.764;2022-07-23T04:52:22;9.88;;;6.28;;
45988;SDS011;31718;50.762;12.764;2022-07-23T04:54:47;10.90;;;6.60;;
45988;SDS011;31718;50.762;12.764;2022-07-23T04:57:13;10.90;;;6.80;;
45988;SDS011;31718;50.762;12.764;2022-07-23T04:59:39;9.27;;;6.60;;
45988;SDS011;31718;50.762;12.764;2022-07-23T05:02:04;9.52;;;6.60;;
45988;SDS011;31718;50.762;12.764;2022-07-23T05:04:30;10.90;;;7.47;;
45988;SDS011;31718;50.762;12.764;2022-07-23T05:06:56;11.18;;;7.95;;
45988;SDS011;31718;50.762;12.764;2022-07-23T05:09:22;10.57;;;7.88;;
45988;SDS011;31718;50.762;12.764;2022-07-23T05:11:48;10.50;;;8.07;;
45988;SDS011;31718;50.762;12.764;2022-07-23T05:14:13;10.68;;;7.63;;
45988;SDS011;31718;50.762;12.764;2022-07-23T05:16:39;13.02;;;9.23;;
45988;SDS011;31718;50.762;12.764;2022-07-23T05:19:05;11.18;;;8.40;;
45988;SDS011;31718;50.762;12.764;2022-07-23T05:21:30;13.30;;;9.73;;
45988;SDS011;31718;50.762;12.764;2022-07-23T05:23:56;12.65;;;9.75;;
45988;SDS011;31718;50.762;12.764;2022-07-23T05:26:21;12.27;;;8.20;;
45988;SDS011;31718;50.762;12.764;2022-07-23T05:28:47;12.05;;;8.45;;
45988;SDS011;31718;50.762;12.764;2022-07-23T05:31:13;12.60;;;9.45;;
45988;SDS011;31718;50.762;12.764;2022-07-23T05:33:38;13.48;;;9.65;;
45988;SDS011;31718;50.762;12.764;2022-07-23T05:36:04;12.60;;;8.90;;
45988;SDS011;31718;50.762;12.764;2022-07-23T05:38:30;11.70;;;7.95;;
45988;SDS011;31718;50.762;12.764;2022-07-23T05:40:56;13.63;;;8.95;;
45988;SDS011;31718;50.762;12.764;2022-07-23T05:43:22;12.05;;;8.82;;
45988;SDS011;31718;50.762;12.764;2022-07-23T05:45:47;12.02;;;8.13;;
45988;SDS011;31718;50.762;12.764;2022-07-23T05:48:13;12.13;;;8.73;;
45988;SDS011;31718;50.762;12.764;2022-07-23T05:50:39;11.68;;;7.93;;
45988;SDS011;31718;50.762;12.764;2022-07-23T05:53:04;12.25;;;8.32;;
45988;SDS011;31718;50.762;12.764;2022-07-23T05:55:30;12.05;;;7.90;;
45988;SDS011;31718;50.762;12.764;2022-07-23T05:57:56;11.98;;;7.75;;
45988;SDS011;31718;50.762;12.764;2022-07-23T06:00:23;11.65;;;7.90;;
45988;SDS011;31718;50.762;12.764;2022-07-23T06:02:49;12.07;;;8.75;;
45988;SDS011;31718;50.762;12.764;2022-07-23T06:05:15;11.90;;;8.35;;
45988;SDS011;31718;50.762;12.764;2022-07-23T06:07:41;11.05;;;7.40;;
45988;SDS011;31718;50.762;12.764;2022-07-23T06:10:06;10.32;;;7.40;;
45988;SDS011;31718;50.762;12.764;2022-07-23T06:12:32;10.90;;;7.72;;
45988;SDS011;31718;50.762;12.764;2022-07-23T06:14:58;11.48;;;7.63;;
45988;SDS011;31718;50.762;12.764;2022-07-23T06:17:25;11.43;;;8.18;;
45988;SDS011;31718;50.762;12.764;2022-07-23T06:19:52;11.15;;;7.25;;
45988;SDS011;31718;50.762;12.764;2022-07-23T06:22:18;12.40;;;7.75;;
45988;SDS011;31718;50.762;12.764;2022-07-23T06:24:43;10.40;;;6.78;;
45988;SDS011;31718;50.762;12.764;2022-07-23T06:27:09;11.32;;;7.53;;
45988;SDS011;31718;50.762;12.764;2022-07-23T06:29:35;10.30;;;7.03;;
45988;SDS011;31718;50.762;12.764;2022-07-23T06:32:00;12.75;;;7.75;;
45988;SDS011;31718;50.762;12.764;2022-07-23T06:34:26;10.93;;;7.70;;
45988;SDS011;31718;50.762;12.764;2022-07-23T06:36:51;11.57;;;7.72;;
45988;SDS011;31718;50.762;12.764;2022-07-23T06:39:17;13.88;;;8.23;;
45988;SDS011;31718;50.762;12.764;2022-07-23T06:41:43;11.15;;;7.53;;
45988;SDS011;31718;50.762;12.764;2022-07-23T06:44:08;12.38;;;7.90;;
45988;SDS011;31718;50.762;12.764;2022-07-23T06:46:34;10.20;;;7.50;;
45988;SDS011;31718;50.762;12.764;2022-07-23T06:49:00;14.10;;;8.52;;
45988;SDS011;31718;50.762;12.764;2022-07-23T06:51:25;13.82;;;8.25;;
45988;SDS011;31718;50.762;12.764;2022-07-23T06:53:51;12.90;;;7.45;;
45988;SDS011;31718;50.762;12.764;2022-07-23T06:56:17;11.57;;;8.27;;
45988;SDS011;31718;50.762;12.764;2022-07-23T06:58:42;12.32;;;7.72;;
45988;SDS011;31718;50.762;12.764;2022-07-23T07:01:08;11.43;;;7.10;;
45988;SDS011;31718;50.762;12.764;2022-07-23T07:03:33;11.65;;;8.05;;
45988;SDS011;31718;50.762;12.764;2022-07-23T07:05:59;11.52;;;7.43;;
45988;SDS011;31718;50.762;12.764;2022-07-23T07:08:25;11.75;;;7.65;;
45988;SDS011;31718;50.762;12.764;2022-07-23T07:10:50;11.55;;;7.25;;
45988;SDS011;31718;50.762;12.764;2022-07-23T07:13:16;12.45;;;7.40;;
45988;SDS011;31718;50.762;12.764;2022-07-23T07:15:41;11.68;;;7.45;;
45988;SDS011;31718;50.762;12.764;2022-07-23T07:18:07;12.18;;;7.95;;
45988;SDS011;31718;50.762;12.764;2022-07-23T07:20:33;11.55;;;8.32;;
45988;SDS011;31718;50.762;12.764;2022-07-23T07:22:58;12.27;;;7.70;;
45988;SDS011;31718;50.762;12.764;2022-07-23T07:25:24;10.00;;;7.63;;
45988;SDS011;31718;50.762;12.764;2022-07-23T07:27:50;12.48;;;8.30;;
45988;SDS011;31718;50.762;12.764;2022-07-23T07:30:15;13.15;;;8.38;;
45988;SDS011;31718;50.762;12.764;2022-07-23T07:32:41;11.48;;;7.95;;
45988;SDS011;31718;50.762;12.764;2022-07-23T07:35:07;10.45;;;7.88;;
45988;SDS011;31718;50.762;12.764;2022-07-23T07:37:33;11.27;;;7.45;;
45988;SDS011;31718;50.762;12.764;2022-07-23T07:39:59;10.82;;;7.25;;
45988;SDS011;31718;50.762;12.764;2022-07-23T07:42:24;12.48;;;7.55;;
45988;SDS011;31718;50.762;12.764;2022-07-23T07:44:50;11.20;;;7.10;;
45988;SDS011;31718;50.762;12.764;2022-07-23T07:47:16;10.00;;;7.00;;
45988;SDS011;31718;50.762;12.764;2022-07-23T07:49:42;10.68;;;7.10;;
45988;SDS011;31718;50.762;12.764;2022-07-23T07:52:08;10.52;;;7.28;;
45988;SDS011;31718;50.762;12.764;2022-07-23T07:54:34;11.15;;;7.30;;
45988;SDS011;31718;50.762;12.764;2022-07-23T07:56:59;10.20;;;7.45;;
45988;SDS011;31718;50.762;12.764;2022-07-23T07:59:25;10.43;;;7.50;;
45988;SDS011;31718;50.762;12.764;2022-07-23T08:01:51;12.18;;;8.52;;
45988;SDS011;31718;50.762;12.764;2022-07-23T08:04:17;10.90;;;7.65;;
45988;SDS011;31718;50.762;12.764;2022-07-23T08:06:42;11.63;;;8.68;;
45988;SDS011;31718;50.762;12.764;2022-07-23T08:09:08;12.18;;;7.60;;
45988;SDS011;31718;50.762;12.764;2022-07-23T08:11:33;11.63;;;7.63;;
45988;SDS011;31718;50.762;12.764;2022-07-23T08:13:59;11.98;;;8.82;;
45988;SDS011;31718;50.762;12.764;2022-07-23T08:16:24;12.32;;;8.63;;
45988;SDS011;31718;50.762;12.764;2022-07-23T08:18:50;11.77;;;8.40;;
45988;SDS011;31718;50.762;12.764;2022-07-23T08:21:16;12.70;;;8.18;;
45988;SDS011;31718;50.762;12.764;2022-07-23T08:23:41;11.93;;;7.65;;
45988;SDS011;31718;50.762;12.764;2022-07-23T08:26:07;11.73;;;8.38;;
45988;SDS011;31718;50.762;12.764;2022-07-23T08:28:32;10.77;;;8.00;;
45988;SDS011;31718;50.762;12.764;2022-07-23T08:30:58;10.80;;;7.35;;
45988;SDS011;31718;50.762;12.764;2022-07-23T08:33:24;12.82;;;8.60;;
45988;SDS011;31718;50.762;12.764;2022-07-23T08:35:50;11.55;;;8.43;;
45988;SDS011;31718;50.762;12.764;2022-07-23T08:38:18;11.65;;;8.20;;
45988;SDS011;31718;50.762;12.764;2022-07-23T08:40:49;9.88;;;7.50;;
45988;SDS011;31718;50.762;12.764;2022-07-23T08:43:20;13.32;;;7.20;;
45988;SDS011;31718;50.762;12.764;2022-07-23T08:45:48;10.25;;;7.72;;
45988;SDS011;31718;50.762;12.764;2022-07-23T08:48:22;13.68;;;8.82;;
45988;SDS011;31718;50.762;12.764;2022-07-23T08:50:49;10.95;;;7.90;;
45988;SDS011;31718;50.762;12.764;2022-07-23T08:53:17;11.15;;;8.10;;
45988;SDS011;31718;50.762;12.764;2022-07-23T08:55:44;9.52;;;7.28;;
45988;SDS011;31718;50.762;12.764;2022-07-23T08:58:11;9.25;;;6.47;;
45988;SDS011;31718;50.762;12.764;2022-07-23T09:00:37;10.70;;;7.30;;
45988;SDS011;31718;50.762;12.764;2022-07-23T09:03:03;9.73;;;7.40;;
45988;SDS011;31718;50.762;12.764;2022-07-23T09:05:29;10.52;;;7.00;;
45988;SDS011;31718;50.762;12.764;2022-07-23T09:08:08;9.85;;;6.85;;
45988;SDS011;31718;50.762;12.764;2022-07-23T09:13:22;9.95;;;6.72;;
45988;SDS011;31718;50.762;12.764;2022-07-23T09:15:56;9.90;;;7.22;;
45988;SDS011;31718;50.762;12.764;2022-07-23T09:21:30;9.48;;;6.90;;
45988;SDS011;31718;50.762;12.764;2022-07-23T09:26:29;10.68;;;7.78;;
45988;SDS011;31718;50.762;12.764;2022-07-23T09:29:18;10.35;;;7.10;;
45988;SDS011;31718;50.762;12.764;2022-07-23T09:31:46;10.65;;;7.05;;
45988;SDS011;31718;50.762;12.764;2022-07-23T09:34:13;9.57;;;6.68;;
45988;SDS011;31718;50.762;12.764;2022-07-23T09:36:41;9.82;;;6.05;;
45988;SDS011;31718;50.762;12.764;2022-07-23T09:39:07;8.73;;;6.28;;
45988;SDS011;31718;50.762;12.764;2022-07-23T09:41:41;8.88;;;6.32;;
45988;SDS011;31718;50.762;12.764;2022-07-23T09:44:12;9.87;;;6.97;;
45988;SDS011;31718;50.762;12.764;2022-07-23T09:46:41;8.65;;;6.32;;
45988;SDS011;31718;50.762;12.764;2022-07-23T09:49:21;9.65;;;6.00;;
45988;SDS011;31718;50.762;12.764;2022-07-23T09:54:25;9.50;;;6.80;;
45988;SDS011;31718;50.762;12.764;2022-07-23T09:56:52;10.63;;;6.80;;
45988;SDS011;31718;50.762;12.764;2022-07-23T09:59:18;11.50;;;8.00;;
45988;SDS011;31718;50.762;12.764;2022-07-23T10:01:50;10.23;;;7.68;;
45988;SDS011;31718;50.762;12.764;2022-07-23T10:04:16;15.35;;;8.48;;
45988;SDS011;31718;50.762;12.764;2022-07-23T10:06:43;13.23;;;8.52;;
45988;SDS011;31718;50.762;12.764;2022-07-23T10:09:10;12.35;;;9.27;;
45988;SDS011;31718;50.762;12.764;2022-07-23T10:11:39;11.73;;;9.68;;
45988;SDS011;31718;50.762;12.764;2022-07-23T10:14:04;13.52;;;10.20;;
45988;SDS011;31718;50.762;12.764;2022-07-23T10:16:31;11.77;;;8.95;;
45988;SDS011;31718;50.762;12.764;2022-07-23T10:18:57;11.27;;;9.55;;
45988;SDS011;31718;50.762;12.764;2022-07-23T10:33:22;8.63;;;6.18;;
45988;SDS011;31718;50.762;12.764;2022-07-23T10:38:51;8.65;;;6.60;;
45988;SDS011;31718;50.762;12.764;2022-07-23T10:41:33;9.48;;;5.85;;
45988;SDS011;31718;50.762;12.764;2022-07-23T10:46:34;9.82;;;6.10;;
45988;SDS011;31718;50.762;12.764;2022-07-23T10:54:47;10.98;;;6.43;;
45988;SDS011;31718;50.762;12.764;2022-07-23T10:57:14;10.07;;;6.40;;
45988;SDS011;31718;50.762;12.764;2022-07-23T11:02:34;9.15;;;6.40;;
45988;SDS011;31718;50.762;12.764;2022-07-23T11:05:01;9.50;;;6.32;;
45988;SDS011;31718;50.762;12.764;2022-07-23T11:07:33;8.45;;;6.45;;
45988;SDS011;31718;50.762;12.764;2022-07-23T11:09:59;10.23;;;6.95;;
45988;SDS011;31718;50.762;12.764;2022-07-23T11:17:38;11.65;;;8.10;;
45988;SDS011;31718;50.762;12.764;2022-07-23T11:20:24;9.63;;;6.50;;
45988;SDS011;31718;50.762;12.764;2022-07-23T11:22:51;10.65;;;7.80;;
45988;SDS011;31718;50.762;12.764;2022-07-23T11:27:48;8.85;;;6.95;;
45988;SDS011;31718;50.762;12.764;2022-07-23T11:32:54;12.27;;;7.70;;
45988;SDS011;31718;50.762;12.764;2022-07-23T11:35:44;9.27;;;6.53;;
45988;SDS011;31718;50.762;12.764;2022-07-23T11:38:18;9.27;;;6.97;;
45988;SDS011;31718;50.762;12.764;2022-07-23T11:40:50;10.25;;;6.75;;
45988;SDS011;31718;50.762;12.764;2022-07-23T11:43:21;10.70;;;7.20;;
45988;SDS011;31718;50.762;12.764;2022-07-23T11:45:48;10.52;;;7.60;;
45988;SDS011;31718;50.762;12.764;2022-07-23T11:48:18;10.07;;;6.82;;
45988;SDS011;31718;50.762;12.764;2022-07-23T11:50:55;11.30;;;6.70;;
45988;SDS011;31718;50.762;12.764;2022-07-23T11:53:31;9.82;;;6.40;;
45988;SDS011;31718;50.762;12.764;2022-07-23T11:56:08;10.40;;;7.13;;
45988;SDS011;31718;50.762;12.764;2022-07-23T11:58:35;10.48;;;6.25;;
45988;SDS011;31718;50.762;12.764;2022-07-23T12:01:02;9.63;;;6.30;;
45988;SDS011;31718;50.762;12.764;2022-07-23T12:03:28;9.30;;;7.05;;
45988;SDS011;31718;50.762;12.764;2022-07-23T12:05:58;9.95;;;6.72;;
45988;SDS011;31718;50.762;12.764;2022-07-23T12:08:24;11.25;;;7.20;;
45988;SDS011;31718;50.762;12.764;2022-07-23T12:10:50;9.65;;;6.75;;
45988;SDS011;31718;50.762;12.764;2022-07-23T12:13:17;12.50;;;7.40;;
45988;SDS011;31718;50.762;12.764;2022-07-23T12:15:46;9.38;;;6.20;;
45988;SDS011;31718;50.762;12.764;2022-07-23T12:18:14;11.38;;;7.40;;
45988;SDS011;31718;50.762;12.764;2022-07-23T12:20:44;10.82;;;7.30;;
45988;SDS011;31718;50.762;12.764;2022-07-23T12:23:13;9.50;;;6.43;;
45988;SDS011;31718;50.762;12.764;2022-07-23T12:25:41;9.70;;;6.13;;
45988;SDS011;31718;50.762;12.764;2022-07-23T12:28:15;9.63;;;6.60;;
45988;SDS011;31718;50.762;12.764;2022-07-23T12:31:02;9.48;;;6.07;;
45988;SDS011;31718;50.762;12.764;2022-07-23T12:33:29;9.88;;;6.70;;
45988;SDS011;31718;50.762;12.764;2022-07-23T12:35:57;10.52;;;6.80;;
45988;SDS011;31718;50.762;12.764;2022-07-23T12:38:25;9.57;;;7.13;;
45988;SDS011;31718;50.762;12.764;2022-07-23T12:40:53;10.25;;;6.93;;
45988;SDS011;31718;50.762;12.764;2022-07-23T12:43:21;9.88;;;6.80;;
45988;SDS011;31718;50.762;12.764;2022-07-23T12:48:17;10.57;;;7.50;;
45988;SDS011;31718;50.762;12.764;2022-07-23T12:51:01;10.48;;;7.15;;
45988;SDS011;31718;50.762;12.764;2022-07-23T12:53:32;12.50;;;7.95;;
45988;SDS011;31718;50.762;12.764;2022-07-23T12:56:09;11.40;;;8.38;;
45988;SDS011;31718;50.762;12.764;2022-07-23T13:01:10;11.30;;;8.77;;
45988;SDS011;31718;50.762;12.764;2022-07-23T13:06:58;12.98;;;8.25;;
45988;SDS011;31718;50.762;12.764;2022-07-23T13:09:29;10.80;;;8.48;;
45988;SDS011;31718;50.762;12.764;2022-07-23T13:11:56;11.55;;;8.30;;
45988;SDS011;31718;50.762;12.764;2022-07-23T13:14:23;11.40;;;8.52;;
45988;SDS011;31718;50.762;12.764;2022-07-23T13:16:49;12.40;;;9.07;;
45988;SDS011;31718;50.762;12.764;2022-07-23T13:19:17;10.80;;;8.85;;
45988;SDS011;31718;50.762;12.764;2022-07-23T13:21:43;11.88;;;8.07;;
45988;SDS011;31718;50.762;12.764;2022-07-23T13:24:09;10.73;;;8.18;;
45988;SDS011;31718;50.762;12.764;2022-07-23T13:26:35;10.07;;;7.45;;
45988;SDS011;31718;50.762;12.764;2022-07-23T13:29:02;9.85;;;7.43;;
45988;SDS011;31718;50.762;12.764;2022-07-23T13:31:28;10.25;;;8.10;;
45988;SDS011;31718;50.762;12.764;2022-07-23T13:33:53;10.27;;;7.68;;
45988;SDS011;31718;50.762;12.764;2022-07-23T13:36:19;10.98;;;8.32;;
45988;SDS011;31718;50.762;12.764;2022-07-23T13:38:44;13.43;;;8.65;;
45988;SDS011;31718;50.762;12.764;2022-07-23T13:41:10;11.05;;;8.43;;
45988;SDS011;31718;50.762;12.764;2022-07-23T13:43:36;11.15;;;8.50;;
45988;SDS011;31718;50.762;12.764;2022-07-23T13:46:03;11.95;;;9.00;;
45988;SDS011;31718;50.762;12.764;2022-07-23T13:48:28;12.10;;;9.90;;
45988;SDS011;31718;50.762;12.764;2022-07-23T13:50:54;11.13;;;9.13;;
45988;SDS011;31718;50.762;12.764;2022-07-23T13:53:21;12.25;;;9.80;;
45988;SDS011;31718;50.762;12.764;2022-07-23T13:55:50;12.30;;;9.63;;
45988;SDS011;31718;50.762;12.764;2022-07-23T13:58:17;12.60;;;9.15;;
45988;SDS011;31718;50.762;12.764;2022-07-23T14:00:45;12.68;;;9.63;;
45988;SDS011;31718;50.762;12.764;2022-07-23T14:03:16;11.75;;;9.50;;
45988;SDS011;31718;50.762;12.764;2022-07-23T14:05:42;11.80;;;9.65;;
45988;SDS011;31718;50.762;12.764;2022-07-23T14:08:09;11.70;;;9.25;;
45988;SDS011;31718;50.762;12.764;2022-07-23T14:10:36;11.65;;;10.13;;
45988;SDS011;31718;50.762;12.764;2022-07-23T14:13:02;11.55;;;9.73;;
45988;SDS011;31718;50.762;12.764;2022-07-23T14:15:28;13.55;;;10.80;;
45988;SDS011;31718;50.762;12.764;2022-07-23T14:17:55;12.45;;;11.02;;
45988;SDS011;31718;50.762;12.764;2022-07-23T14:20:21;12.13;;;10.30;;
45988;SDS011;31718;50.762;12.764;2022-07-23T14:22:47;14.38;;;11.85;;
45988;SDS011;31718;50.762;12.764;2022-07-23T14:25:14;14.00;;;10.55;;
45988;SDS011;31718;50.762;12.764;2022-07-23T14:27:40;13.18;;;10.98;;
45988;SDS011;31718;50.762;12.764;2022-07-23T14:30:07;14.27;;;10.43;;
45988;SDS011;31718;50.762;12.764;2022-07-23T14:32:33;13.90;;;10.48;;
45988;SDS011;31718;50.762;12.764;2022-07-23T14:34:59;12.73;;;10.75;;
45988;SDS011;31718;50.762;12.764;2022-07-23T14:37:25;12.73;;;10.40;;
45988;SDS011;31718;50.762;12.764;2022-07-23T14:39:50;12.38;;;10.68;;
45988;SDS011;31718;50.762;12.764;2022-07-23T14:42:16;13.20;;;11.55;;
45988;SDS011;31718;50.762;12.764;2022-07-23T14:44:42;14.63;;;11.52;;
45988;SDS011;31718;50.762;12.764;2022-07-23T14:47:08;13.45;;;11.10;;
45988;SDS011;31718;50.762;12.764;2022-07-23T14:49:34;14.00;;;12.38;;
45988;SDS011;31718;50.762;12.764;2022-07-23T14:52:01;14.95;;;11.88;;
45988;SDS011;31718;50.762;12.764;2022-07-23T14:54:27;14.15;;;12.15;;
45988;SDS011;31718;50.762;12.764;2022-07-23T14:56:54;15.43;;;12.57;;
45988;SDS011;31718;50.762;12.764;2022-07-23T14:59:20;14.13;;;12.02;;
45988;SDS011;31718;50.762;12.764;2022-07-23T15:01:46;13.98;;;12.48;;
45988;SDS011;31718;50.762;12.764;2022-07-23T15:04:12;14.13;;;12.40;;
45988;SDS011;31718;50.762;12.764;2022-07-23T15:06:37;15.30;;;13.40;;
45988;SDS011;31718;50.762;12.764;2022-07-23T15:09:04;15.77;;;13.75;;
45988;SDS011;31718;50.762;12.764;2022-07-23T15:11:30;15.77;;;13.95;;
45988;SDS011;31718;50.762;12.764;2022-07-23T15:13:58;15.68;;;13.07;;
45988;SDS011;31718;50.762;12.764;2022-07-23T15:16:25;17.45;;;14.20;;
45988;SDS011;31718;50.762;12.764;2022-07-23T15:18:50;17.58;;;13.45;;